createdAt,value
2019-04-27T00:01:49.694Z,1.73
2019-04-27T00:06:46.557Z,0.80
2019-04-27T00:11:51.253Z,1.13
2019-04-27T00:17:43.469Z,1.30
2019-04-27T00:22:36.661Z,0.50
2019-04-27T00:27:33.512Z,2.03
2019-04-27T00:32:29.553Z,0.50
2019-04-27T00:37:46.926Z,0.67
2019-04-27T00:42:44.115Z,0.70
2019-04-27T00:47:39.902Z,1.90
2019-04-27T00:52:35.598Z,1.20
2019-04-27T00:57:58.923Z,1.80
2019-04-27T01:03:08.230Z,0.60
2019-04-27T01:08:03.995Z,1.97
2019-04-27T01:12:59.680Z,1.83
2019-04-27T01:18:11.068Z,1.03
2019-04-27T01:22:53.876Z,0.90
2019-04-27T01:28:06.079Z,0.70
2019-04-27T01:33:03.240Z,0.73
2019-04-27T01:37:59.039Z,1.23
2019-04-27T01:42:54.668Z,1.00
2019-04-27T01:47:50.349Z,0.70
2019-04-27T01:52:46.146Z,1.00
2019-04-27T01:57:41.850Z,1.93
2019-04-27T02:02:52.559Z,0.97
2019-04-27T02:07:49.132Z,1.03
2019-04-27T02:12:44.894Z,1.43
2019-04-27T02:17:40.623Z,1.20
2019-04-27T02:22:36.334Z,2.23
2019-04-27T02:27:33.750Z,1.93
2019-04-27T02:32:39.741Z,0.63
2019-04-27T02:37:35.019Z,1.50
2019-04-27T02:42:39.297Z,1.83
2019-04-27T02:47:35.722Z,0.63
2019-04-27T02:52:50.144Z,0.67
2019-04-27T02:57:46.170Z,0.80
2019-04-27T03:02:56.090Z,1.97
2019-04-27T03:07:51.770Z,1.63
2019-04-27T03:12:53.250Z,2.57
2019-04-27T03:18:03.162Z,1.03
2019-04-27T03:23:02.726Z,0.60
2019-04-27T03:28:03.687Z,1.37
2019-04-27T03:33:03.025Z,0.80
2019-04-27T03:37:56.910Z,3.63
2019-04-27T03:42:54.494Z,0.83
2019-04-27T03:47:50.640Z,1.07
2019-04-27T03:53:10.368Z,0.90
2019-04-27T03:58:17.205Z,1.20
2019-04-27T04:03:13.405Z,2.70
2019-04-27T04:08:10.716Z,0.73
2019-04-27T04:13:22.720Z,1.40
2019-04-27T04:18:19.684Z,1.00
2019-04-27T04:23:15.408Z,2.93
2019-04-27T04:28:11.149Z,1.47
2019-04-27T04:33:06.923Z,3.27
2019-04-27T04:38:03.336Z,2.63
2019-04-27T04:43:19.995Z,7.03
2019-04-27T04:48:19.877Z,2.30
2019-04-27T04:53:15.530Z,1.27
2019-04-27T04:58:11.256Z,2.43
2019-04-27T05:03:06.986Z,1.37
2019-04-27T05:08:02.689Z,2.13
2019-04-27T05:12:59.046Z,3.63
2019-04-27T05:17:54.923Z,3.17
2019-04-27T05:22:50.874Z,0.97
2019-04-27T05:27:46.612Z,3.60
2019-04-27T05:32:42.329Z,1.10
2019-04-27T05:37:38.879Z,1.33
2019-04-27T05:42:33.326Z,1.17
2019-04-27T05:47:29.261Z,1.30
2019-04-27T05:52:31.497Z,3.47
2019-04-27T05:57:28.781Z,4.50
2019-04-27T06:02:29.993Z,2.43
2019-04-27T06:07:26.514Z,0.60
2019-04-27T06:12:22.330Z,0.70
2019-04-27T06:17:19.527Z,1.20
2019-04-27T06:22:13.465Z,1.70
2019-04-27T06:27:10.257Z,0.50
2019-04-27T06:32:05.943Z,0.40
2019-04-27T06:37:01.699Z,1.13
2019-04-27T06:42:00.763Z,0.43
2019-04-27T06:46:55.178Z,1.70
2019-04-27T06:51:50.889Z,0.60
2019-04-27T06:56:46.614Z,1.37
2019-04-27T07:01:42.403Z,0.50
2019-04-27T07:06:51.123Z,1.83
2019-04-27T07:11:35.437Z,0.40
2019-04-27T07:16:31.138Z,0.33
2019-04-27T07:21:28.570Z,0.40
2019-04-27T07:26:25.717Z,0.50
2019-04-27T07:31:22.977Z,0.40
2019-04-27T07:36:19.343Z,0.97
2019-04-27T07:41:15.149Z,0.50
2019-04-27T07:46:10.886Z,0.43
2019-04-27T07:51:06.651Z,1.30
2019-04-27T07:56:03.661Z,1.07
2019-04-27T08:00:59.654Z,2.40
2019-04-27T08:05:55.444Z,0.40
2019-04-27T08:10:51.180Z,0.40
2019-04-27T08:15:49.479Z,0.40
2019-04-27T08:20:45.631Z,0.37
2019-04-27T08:25:41.342Z,0.50
2019-04-27T08:30:46.763Z,1.40
2019-04-27T08:35:42.454Z,0.43
2019-04-27T08:40:39.363Z,0.40
2019-04-27T08:45:36.471Z,1.60
2019-04-27T08:50:32.384Z,0.30
2019-04-27T08:55:29.455Z,0.50
2019-04-27T09:00:25.302Z,0.43
2019-04-27T09:05:30.771Z,0.40
2019-04-27T09:10:45.859Z,0.77
2019-04-27T09:15:55.534Z,0.40
2019-04-27T09:20:54.425Z,0.53
2019-04-27T09:25:51.093Z,0.40
2019-04-27T09:30:49.767Z,0.30
2019-04-27T09:35:46.632Z,0.70
2019-04-27T09:40:42.471Z,0.40
2019-04-27T09:45:38.546Z,0.80
2019-04-27T09:50:36.081Z,0.33
2019-04-27T09:55:32.026Z,0.30
2019-04-27T10:00:29.637Z,0.30
2019-04-27T10:05:26.351Z,0.70
2019-04-27T10:10:23.306Z,0.40
2019-04-27T10:15:19.073Z,0.20
2019-04-27T10:20:16.813Z,0.53
2019-04-27T10:25:23.626Z,0.47
2019-04-27T10:30:19.378Z,0.30
2019-04-27T10:35:16.103Z,0.43
2019-04-27T10:40:11.848Z,0.67
2019-04-27T10:45:08.470Z,0.30
2019-04-27T10:50:05.459Z,1.90
2019-04-27T10:55:01.529Z,0.43
2019-04-27T10:59:57.582Z,1.00
2019-04-27T11:05:06.776Z,0.37
2019-04-27T11:10:02.930Z,0.50
2019-04-27T11:14:58.807Z,0.50
2019-04-27T11:19:54.498Z,0.47
2019-04-27T11:24:50.234Z,0.40
2019-04-27T11:29:46.256Z,0.40
2019-04-27T11:35:19.299Z,0.30
2019-04-27T11:40:15.743Z,0.30
2019-04-27T11:45:12.914Z,0.30
2019-04-27T11:50:09.150Z,0.57
2019-04-27T11:55:05.806Z,0.40
2019-04-27T11:59:59.662Z,0.50
2019-04-27T12:04:55.531Z,0.30
2019-04-27T12:09:52.267Z,0.30
2019-04-27T12:14:49.068Z,0.40
2019-04-27T12:19:46.432Z,0.30
2019-04-27T12:24:42.308Z,1.80
2019-04-27T12:29:55.878Z,0.60
2019-04-27T12:34:51.638Z,0.40
2019-04-27T12:39:47.369Z,0.63
2019-04-27T12:44:43.093Z,0.53
2019-04-27T12:49:38.958Z,0.60
2019-04-27T12:55:02.724Z,0.50
2019-04-27T13:00:06.573Z,1.13
2019-04-27T13:05:03.421Z,0.73
2019-04-27T13:09:59.135Z,0.60
2019-04-27T13:14:54.887Z,0.40
2019-04-27T13:19:50.631Z,0.70
2019-04-27T13:24:46.495Z,0.50
2019-04-27T13:29:42.342Z,1.03
2019-04-27T13:34:38.295Z,0.50
2019-04-27T13:39:35.826Z,0.50
2019-04-27T13:44:31.654Z,0.40
2019-04-27T13:49:36.402Z,0.40
2019-04-27T13:54:33.167Z,0.37
2019-04-27T13:59:28.878Z,0.70
2019-04-27T14:04:24.590Z,0.40
2019-04-27T14:09:20.416Z,0.50
2019-04-27T14:14:16.126Z,0.30
2019-04-27T14:19:11.933Z,0.40
2019-04-27T14:24:07.799Z,0.40
2019-04-27T14:29:03.534Z,0.77
2019-04-27T14:33:59.257Z,1.90
2019-04-27T14:38:55.038Z,1.67
2019-04-27T14:44:05.204Z,1.80
2019-04-27T14:48:48.463Z,1.20
2019-04-27T14:53:44.190Z,2.07
2019-04-27T14:58:40.249Z,1.90
2019-04-27T15:03:36.152Z,0.40
2019-04-27T15:08:34.039Z,0.60
2019-04-27T15:13:30.050Z,0.40
2019-04-27T15:18:29.709Z,0.40
2019-04-27T15:23:30.449Z,0.60
2019-04-27T15:28:29.141Z,0.93
2019-04-27T15:33:34.198Z,0.30
2019-04-27T15:38:33.532Z,1.10
2019-04-27T15:43:31.902Z,0.30
2019-04-27T15:48:30.542Z,0.40
2019-04-27T15:53:25.080Z,0.30
2019-04-27T15:58:25.000Z,0.47
2019-04-27T16:03:18.411Z,1.03
2019-04-27T16:08:15.706Z,0.37
2019-04-27T16:13:15.217Z,0.63
2019-04-27T16:18:14.373Z,0.20
2019-04-27T16:23:10.257Z,0.20
2019-04-27T16:28:09.681Z,0.60
2019-04-27T16:33:04.479Z,0.70
2019-04-27T16:38:09.727Z,0.57
2019-04-27T16:43:05.496Z,1.60
2019-04-27T16:48:02.115Z,0.40
2019-04-27T16:53:00.953Z,0.50
2019-04-27T16:57:55.324Z,0.67
2019-04-27T17:02:54.954Z,0.73
2019-04-27T17:07:48.402Z,1.30
2019-04-27T17:12:46.041Z,0.37
2019-04-27T17:17:51.019Z,0.35
2019-04-27T17:22:50.213Z,0.37
2019-04-27T17:27:49.373Z,0.50
2019-04-27T17:33:10.225Z,0.73
2019-04-27T17:38:03.692Z,0.47
2019-04-27T17:42:59.779Z,9.70
2019-04-27T17:48:00.411Z,0.60
2019-04-27T17:52:55.066Z,1.77
2019-04-27T17:57:50.796Z,1.53
2019-04-27T18:02:46.527Z,0.87
2019-04-27T18:07:44.270Z,0.60
2019-04-27T18:12:44.525Z,1.57
2019-04-27T18:17:40.956Z,4.63
2019-04-27T18:22:41.667Z,1.93
2019-04-27T18:28:02.344Z,1.40
2019-04-27T18:33:02.005Z,1.90
2019-04-27T18:38:00.176Z,6.03
2019-04-27T18:42:55.159Z,2.27
2019-04-27T18:47:56.731Z,1.93
2019-04-27T18:52:58.006Z,4.50
2019-04-27T18:57:54.467Z,3.97
2019-04-27T19:02:50.604Z,2.87
2019-04-27T19:07:48.453Z,1.60
2019-04-27T19:12:44.488Z,3.27
2019-04-27T19:17:40.351Z,1.90
2019-04-27T19:22:36.118Z,7.57
2019-04-27T19:27:50.734Z,3.17
2019-04-27T19:32:46.544Z,5.57
2019-04-27T19:37:42.416Z,5.87
2019-04-27T19:42:38.668Z,8.80
2019-04-27T19:47:34.536Z,4.63
2019-04-27T19:52:30.254Z,5.63
2019-04-27T19:57:34.563Z,4.37
2019-04-27T20:02:23.521Z,5.43
2019-04-27T20:07:19.376Z,5.83
2019-04-27T20:12:15.093Z,6.13
2019-04-27T20:17:10.849Z,6.40
2019-04-27T20:22:06.533Z,4.70
2019-04-27T20:27:02.649Z,2.73
2019-04-27T20:31:58.452Z,4.90
2019-04-27T20:36:54.084Z,3.90
2019-04-27T20:41:51.133Z,4.80
2019-04-27T20:46:46.903Z,2.90
2019-04-27T20:51:53.432Z,4.47
2019-04-27T20:56:49.037Z,4.30
2019-04-27T21:01:44.677Z,3.43
2019-04-27T21:06:43.284Z,6.10
2019-04-27T21:11:46.649Z,3.83
2019-04-27T21:16:42.369Z,6.20
2019-04-27T21:21:38.044Z,2.93
2019-04-27T21:26:33.724Z,3.00
2019-04-27T21:31:31.515Z,4.97
2019-04-27T21:36:26.704Z,2.47
2019-04-27T21:41:22.718Z,2.40
2019-04-27T21:46:18.585Z,3.17
2019-04-27T21:51:14.232Z,2.90
2019-04-27T21:56:11.199Z,3.30
2019-04-27T22:01:13.191Z,3.50
2019-04-27T22:06:11.616Z,3.63
2019-04-27T22:11:07.616Z,2.10
2019-04-27T22:16:03.569Z,3.40
2019-04-27T22:21:01.193Z,2.87
2019-04-27T22:25:56.669Z,4.40
2019-04-27T22:30:52.249Z,4.03
2019-04-27T22:35:48.947Z,2.50
2019-04-27T22:40:56.964Z,2.50
2019-04-27T22:45:52.735Z,2.20
2019-04-27T22:50:48.384Z,2.17
2019-04-27T22:56:02.921Z,5.97
2019-04-27T23:01:13.980Z,3.50
2019-04-27T23:06:11.325Z,4.27
2019-04-27T23:11:08.376Z,3.40
2019-04-27T23:16:05.604Z,6.43
2019-04-27T23:21:01.634Z,6.17
2019-04-27T23:25:57.372Z,4.97
2019-04-27T23:31:04.909Z,3.53
2019-04-27T23:36:01.553Z,3.30
2019-04-27T23:40:57.239Z,4.83
2019-04-27T23:45:53.167Z,1.73
2019-04-27T23:50:50.816Z,2.43
2019-04-27T23:55:46.440Z,4.10
